createdAt,value
2022-12-17T00:00:07.344Z,51.03
2022-12-17T00:02:53.748Z,48.42
2022-12-17T00:05:39.537Z,46.05
2022-12-17T00:08:25.505Z,53.13
2022-12-17T00:11:11.300Z,55.58
2022-12-17T00:13:57.193Z,56.85
2022-12-17T00:16:43.153Z,56.63
2022-12-17T00:19:28.884Z,57.22
2022-12-17T00:22:14.774Z,52.78
2022-12-17T00:25:00.774Z,58.70
2022-12-17T00:27:46.622Z,49.65
2022-12-17T00:30:32.352Z,52.70
2022-12-17T00:33:18.329Z,52.15
2022-12-17T00:36:09.797Z,55.17
2022-12-17T00:38:55.712Z,49.95
2022-12-17T00:41:42.682Z,48.42
2022-12-17T00:44:29.391Z,52.88
2022-12-17T00:47:15.344Z,54.85
2022-12-17T00:50:03.644Z,50.78
2022-12-17T00:52:49.334Z,55.65
2022-12-17T00:55:35.234Z,53.92
2022-12-17T00:58:21.442Z,54.97
2022-12-17T01:01:07.197Z,50.90
2022-12-17T01:03:53.060Z,49.80
2022-12-17T01:06:39.485Z,53.80
2022-12-17T01:09:25.267Z,52.38
2022-12-17T01:12:11.324Z,47.03
2022-12-17T01:14:57.968Z,50.95
2022-12-17T01:17:43.792Z,51.47
2022-12-17T01:20:29.368Z,48.90
2022-12-17T01:23:15.029Z,49.65
2022-12-17T01:26:00.953Z,49.03
2022-12-17T01:28:46.669Z,51.17
2022-12-17T01:31:35.462Z,46.78
2022-12-17T01:34:21.383Z,50.85
2022-12-17T01:37:07.000Z,41.58
2022-12-17T01:39:52.680Z,49.25
2022-12-17T01:42:38.465Z,50.65
2022-12-17T01:45:28.766Z,52.47
2022-12-17T01:48:19.577Z,50.33
2022-12-17T01:51:07.989Z,50.42
2022-12-17T01:53:56.769Z,48.65
2022-12-17T01:56:43.924Z,56.78
2022-12-17T01:59:31.514Z,51.30
2022-12-17T02:02:17.417Z,50.50
2022-12-17T02:05:03.126Z,49.47
2022-12-17T02:08:08.989Z,47.55
2022-12-17T02:11:08.419Z,46.53
2022-12-17T02:13:58.455Z,50.65
2022-12-17T02:16:49.462Z,45.95
2022-12-17T02:19:49.571Z,48.22
2022-12-17T02:22:45.365Z,49.85
2022-12-17T02:25:37.749Z,46.03
2022-12-17T02:28:23.378Z,49.45
2022-12-17T02:31:09.868Z,46.25
2022-12-17T02:33:55.519Z,48.95
2022-12-17T02:36:41.177Z,47.85
2022-12-17T02:39:26.876Z,49.15
2022-12-17T02:42:12.970Z,47.75
2022-12-17T02:44:59.246Z,47.95
2022-12-17T02:47:45.971Z,47.67
2022-12-17T02:50:32.032Z,43.38
2022-12-17T02:53:18.391Z,46.13
2022-12-17T02:56:04.270Z,49.05
2022-12-17T02:58:52.541Z,50.58
2022-12-17T03:01:38.289Z,52.75
2022-12-17T03:04:24.188Z,49.22
2022-12-17T03:07:10.018Z,48.75
2022-12-17T03:09:56.026Z,48.25
2022-12-17T03:12:42.604Z,49.03
2022-12-17T03:15:28.640Z,45.10
2022-12-17T03:18:14.689Z,48.60
2022-12-17T03:21:00.421Z,47.42
2022-12-17T03:23:46.373Z,48.75
2022-12-17T03:26:32.414Z,49.45
2022-12-17T03:29:18.186Z,47.22
2022-12-17T03:32:06.863Z,50.38
2022-12-17T03:34:52.951Z,51.13
2022-12-17T03:37:38.616Z,49.88
2022-12-17T03:40:24.985Z,48.85
2022-12-17T03:43:10.971Z,47.67
2022-12-17T03:45:56.930Z,54.70
2022-12-17T03:48:42.789Z,46.35
2022-12-17T03:51:28.859Z,53.95
2022-12-17T03:54:14.717Z,50.13
2022-12-17T03:57:00.821Z,45.42
2022-12-17T03:59:46.807Z,56.78
2022-12-17T04:02:32.974Z,49.08
2022-12-17T04:05:20.486Z,54.25
2022-12-17T04:08:06.388Z,47.78
2022-12-17T04:10:52.070Z,54.00
2022-12-17T04:13:57.879Z,51.15
2022-12-17T04:16:43.582Z,49.58
2022-12-17T04:19:29.585Z,64.13
2022-12-17T04:22:15.185Z,56.58
2022-12-17T04:25:01.029Z,55.75
2022-12-17T04:27:47.077Z,52.50
2022-12-17T04:30:32.624Z,53.03
2022-12-17T04:33:18.618Z,52.80
2022-12-17T04:36:04.643Z,54.05
2022-12-17T04:38:50.478Z,54.75
2022-12-17T04:41:53.234Z,55.60
2022-12-17T04:44:38.688Z,59.05
2022-12-17T04:47:24.589Z,55.28
2022-12-17T04:50:10.617Z,56.15
2022-12-17T04:52:56.452Z,52.90
2022-12-17T04:55:42.179Z,53.05
2022-12-17T04:58:28.213Z,52.83
2022-12-17T05:01:14.047Z,53.05
2022-12-17T05:03:59.913Z,51.03
2022-12-17T05:06:45.650Z,51.47
2022-12-17T05:09:31.517Z,48.67
2022-12-17T05:12:17.367Z,54.13
2022-12-17T05:15:02.833Z,51.25
2022-12-17T05:17:48.482Z,54.58
2022-12-17T05:20:34.434Z,48.83
2022-12-17T05:23:24.279Z,61.55
2022-12-17T05:26:24.185Z,53.58
2022-12-17T05:29:15.582Z,52.20
2022-12-17T05:32:01.645Z,63.55
2022-12-17T05:34:47.712Z,56.95
2022-12-17T05:37:33.634Z,55.75
2022-12-17T05:40:19.485Z,59.75
2022-12-17T05:43:18.580Z,55.60
2022-12-17T05:46:05.346Z,54.55
2022-12-17T05:48:51.548Z,57.67
2022-12-17T05:51:39.019Z,57.92
2022-12-17T05:54:25.435Z,54.85
2022-12-17T05:57:11.488Z,54.60
2022-12-17T05:59:57.492Z,61.72
2022-12-17T06:02:43.448Z,54.25
2022-12-17T06:05:29.063Z,61.47
2022-12-17T06:08:24.697Z,49.20
2022-12-17T06:11:10.453Z,56.95
2022-12-17T06:13:56.361Z,49.83
2022-12-17T06:16:42.126Z,50.55
2022-12-17T06:19:27.908Z,55.53
2022-12-17T06:22:13.831Z,48.97
2022-12-17T06:24:59.953Z,51.90
2022-12-17T06:27:45.776Z,53.90
2022-12-17T06:30:31.793Z,47.78
2022-12-17T06:33:28.738Z,54.90
2022-12-17T06:36:21.647Z,53.03
2022-12-17T06:39:08.775Z,50.15
2022-12-17T06:42:02.208Z,56.25
2022-12-17T06:44:49.632Z,49.65
2022-12-17T06:47:35.675Z,47.08
2022-12-17T06:50:21.703Z,50.08
2022-12-17T06:53:15.843Z,53.17
2022-12-17T06:56:01.818Z,32.80
2022-12-17T06:58:48.001Z,46.50
2022-12-17T07:01:33.914Z,55.60
2022-12-17T07:04:19.709Z,52.08
2022-12-17T07:07:05.536Z,52.05
2022-12-17T07:09:51.405Z,53.00
2022-12-17T07:12:38.255Z,48.92
2022-12-17T07:15:24.645Z,53.92
2022-12-17T07:18:14.633Z,50.65
2022-12-17T07:21:00.425Z,50.70
2022-12-17T07:23:46.557Z,50.30
2022-12-17T07:26:37.103Z,59.10
2022-12-17T07:29:22.661Z,59.13
2022-12-17T07:32:08.793Z,52.63
2022-12-17T07:34:54.563Z,57.80
2022-12-17T07:37:40.477Z,49.88
2022-12-17T07:40:27.154Z,55.25
2022-12-17T07:43:12.976Z,48.50
2022-12-17T07:45:58.977Z,52.20
2022-12-17T07:48:44.682Z,51.30
2022-12-17T07:51:30.661Z,48.78
2022-12-17T07:54:16.633Z,53.78
2022-12-17T07:57:02.411Z,47.05
2022-12-17T07:59:48.476Z,48.78
2022-12-17T08:02:34.438Z,48.25
2022-12-17T08:05:20.135Z,45.55
2022-12-17T08:08:06.089Z,58.55
2022-12-17T08:10:53.573Z,53.50
2022-12-17T08:13:40.156Z,57.42
2022-12-17T08:16:26.667Z,53.05
2022-12-17T08:19:12.218Z,60.63
2022-12-17T08:21:57.979Z,54.03
2022-12-17T08:24:43.805Z,52.55
2022-12-17T08:27:46.418Z,55.30
2022-12-17T08:30:32.179Z,54.55
2022-12-17T08:33:24.541Z,56.17
2022-12-17T08:36:14.417Z,58.40
2022-12-17T08:39:00.097Z,64.00
2022-12-17T08:41:51.122Z,58.55
2022-12-17T08:44:39.894Z,56.83
2022-12-17T08:47:25.791Z,56.47
2022-12-17T08:50:11.630Z,55.60
2022-12-17T08:52:57.249Z,49.72
2022-12-17T08:55:42.916Z,52.80
2022-12-17T08:58:28.447Z,53.85
2022-12-17T09:01:17.659Z,54.28
2022-12-17T09:04:06.531Z,55.72
2022-12-17T09:06:52.464Z,57.65
2022-12-17T09:09:38.200Z,58.10
2022-12-17T09:12:24.118Z,51.67
2022-12-17T09:15:09.810Z,52.00
2022-12-17T09:17:55.737Z,55.45
2022-12-17T09:20:41.622Z,49.72
2022-12-17T09:23:27.312Z,49.80
2022-12-17T09:26:14.133Z,48.38
2022-12-17T09:29:00.178Z,56.47
2022-12-17T09:31:45.782Z,59.72
2022-12-17T09:34:31.532Z,53.75
2022-12-17T09:37:17.446Z,49.80
2022-12-17T09:40:03.516Z,48.88
2022-12-17T09:43:00.414Z,48.55
2022-12-17T09:45:52.384Z,53.28
2022-12-17T09:48:42.675Z,48.15
2022-12-17T09:51:42.516Z,50.63
2022-12-17T09:54:40.526Z,48.28
2022-12-17T09:57:29.090Z,49.85
2022-12-17T10:00:14.862Z,47.70
2022-12-17T10:03:00.630Z,40.33
2022-12-17T10:05:48.494Z,45.78
2022-12-17T10:08:37.029Z,42.90
2022-12-17T10:11:42.114Z,42.42
2022-12-17T10:14:37.216Z,44.00
2022-12-17T10:20:10.978Z,46.08
2022-12-17T10:23:04.346Z,44.53
2022-12-17T10:25:50.207Z,46.63
2022-12-17T10:28:41.465Z,47.33
2022-12-17T10:31:38.336Z,50.80
2022-12-17T10:34:39.042Z,48.90
2022-12-17T10:37:24.741Z,45.97
2022-12-17T10:40:15.440Z,47.60
2022-12-17T10:43:01.253Z,45.05
2022-12-17T10:45:51.442Z,44.88
2022-12-17T10:48:49.593Z,45.55
2022-12-17T10:51:54.785Z,55.65
2022-12-17T10:54:49.406Z,50.88
2022-12-17T10:57:44.848Z,44.63
2022-12-17T11:00:50.332Z,45.00
2022-12-17T11:03:46.525Z,44.58
2022-12-17T11:06:42.078Z,46.10
2022-12-17T11:09:42.660Z,42.25
2022-12-17T11:12:30.732Z,41.75
2022-12-17T11:15:19.756Z,43.17
2022-12-17T11:18:11.142Z,42.13
2022-12-17T11:21:28.658Z,40.00
2022-12-17T11:24:19.134Z,42.83
2022-12-17T11:27:10.240Z,41.10
2022-12-17T11:29:56.407Z,38.20
2022-12-17T11:33:19.054Z,41.28
2022-12-17T11:36:13.473Z,45.15
2022-12-17T11:39:22.460Z,45.42
2022-12-17T11:42:27.005Z,42.45
2022-12-17T11:45:23.819Z,43.60
2022-12-17T11:48:15.432Z,40.50
2022-12-17T11:51:20.885Z,39.58
2022-12-17T11:54:26.500Z,45.75
2022-12-17T12:00:35.992Z,43.40
2022-12-17T12:03:54.138Z,32.22
2022-12-17T12:07:22.022Z,41.35
2022-12-17T12:10:21.869Z,45.67
2022-12-17T12:13:43.110Z,42.10
2022-12-17T12:16:49.551Z,46.92
2022-12-17T12:19:49.299Z,45.05
2022-12-17T12:22:40.468Z,48.53
2022-12-17T12:25:44.664Z,49.75
2022-12-17T12:28:46.835Z,45.63
2022-12-17T12:31:50.928Z,50.00
2022-12-17T12:34:41.587Z,52.53
2022-12-17T12:37:31.595Z,47.08
2022-12-17T12:40:32.490Z,48.33
2022-12-17T12:43:45.681Z,51.25
2022-12-17T12:46:52.604Z,45.38
2022-12-17T12:49:48.870Z,50.40
2022-12-17T12:52:40.230Z,44.42
2022-12-17T12:55:26.009Z,44.50
2022-12-17T12:58:21.128Z,48.08
2022-12-17T13:01:07.179Z,51.38
2022-12-17T13:04:02.184Z,47.95
2022-12-17T13:06:45.665Z,49.55
2022-12-17T13:09:15.874Z,49.53
2022-12-17T13:11:47.012Z,50.75
2022-12-17T13:14:23.693Z,50.05
2022-12-17T13:16:53.809Z,54.25
2022-12-17T13:19:21.291Z,55.33
2022-12-17T13:21:48.567Z,51.08
2022-12-17T13:24:26.017Z,50.00
2022-12-17T13:26:53.293Z,60.20
2022-12-17T13:29:29.797Z,55.40
2022-12-17T13:32:04.761Z,62.50
2022-12-17T13:35:10.331Z,57.75
2022-12-17T13:37:43.746Z,55.35
2022-12-17T13:40:38.839Z,57.22
2022-12-17T13:43:13.477Z,55.42
2022-12-17T13:45:40.730Z,58.47
2022-12-17T13:48:19.914Z,58.63
2022-12-17T13:50:58.037Z,54.10
2022-12-17T13:53:25.529Z,52.92
2022-12-17T13:55:57.017Z,53.50
2022-12-17T13:58:34.843Z,61.42
2022-12-17T14:01:08.909Z,57.25
2022-12-17T14:04:04.517Z,62.42
2022-12-17T14:06:25.723Z,57.25
2022-12-17T14:08:54.057Z,62.22
2022-12-17T14:11:39.844Z,67.32
2022-12-17T14:14:31.341Z,67.10
2022-12-17T14:16:58.872Z,67.57
2022-12-17T14:19:26.121Z,78.50
2022-12-17T14:21:53.361Z,72.95
2022-12-17T14:24:23.146Z,77.45
2022-12-17T14:26:51.405Z,79.20
2022-12-17T14:29:23.840Z,71.28
2022-12-17T14:32:01.456Z,78.63
2022-12-17T14:34:29.890Z,75.40
2022-12-17T14:36:58.719Z,73.35
2022-12-17T14:39:28.588Z,77.57
2022-12-17T14:42:25.306Z,75.18
2022-12-17T14:44:54.537Z,74.45
2022-12-17T14:47:25.597Z,75.35
2022-12-17T14:49:58.424Z,76.43
2022-12-17T14:52:39.107Z,73.22
2022-12-17T14:55:22.432Z,77.45
2022-12-17T14:57:50.434Z,71.60
2022-12-17T15:00:18.520Z,76.63
2022-12-17T15:02:52.977Z,80.60
2022-12-17T15:05:20.398Z,83.72
2022-12-17T15:07:47.573Z,77.95
2022-12-17T15:10:18.866Z,80.80
2022-12-17T15:12:46.420Z,79.03
2022-12-17T15:15:14.461Z,77.80
2022-12-17T15:17:41.787Z,83.05
2022-12-17T15:20:16.836Z,90.28
2022-12-17T15:22:44.002Z,79.90
2022-12-17T15:25:16.567Z,82.40
2022-12-17T15:27:44.033Z,76.20
2022-12-17T15:30:15.722Z,76.88
2022-12-17T15:32:43.102Z,81.30
2022-12-17T15:35:11.289Z,80.75
2022-12-17T15:37:38.595Z,85.68
2022-12-17T15:40:06.634Z,87.95
2022-12-17T15:42:52.283Z,83.22
2022-12-17T15:45:19.489Z,81.82
2022-12-17T15:47:46.767Z,84.13
2022-12-17T15:50:13.940Z,88.40
2022-12-17T15:52:41.131Z,86.32
2022-12-17T15:55:09.513Z,89.93
2022-12-17T15:57:36.675Z,90.88
2022-12-17T16:00:04.542Z,100.55
2022-12-17T16:02:32.718Z,92.05
2022-12-17T16:05:00.031Z,98.78
2022-12-17T16:07:27.233Z,89.78
2022-12-17T16:09:54.400Z,96.97
2022-12-17T16:12:22.001Z,93.97
2022-12-17T16:14:49.166Z,94.72
2022-12-17T16:17:16.363Z,98.82
2022-12-17T16:19:43.546Z,92.72
2022-12-17T16:22:10.753Z,85.28
2022-12-17T16:24:37.994Z,91.57
2022-12-17T16:27:05.235Z,91.85
2022-12-17T16:29:32.427Z,88.90
2022-12-17T16:32:00.124Z,83.47
2022-12-17T16:34:27.322Z,85.90
2022-12-17T16:36:54.514Z,98.85
2022-12-17T16:39:21.870Z,105.35
2022-12-17T16:41:49.177Z,98.30
2022-12-17T16:44:16.366Z,102.10
2022-12-17T16:46:43.710Z,98.60
2022-12-17T16:49:11.873Z,86.32
2022-12-17T16:51:39.390Z,94.60
2022-12-17T16:54:13.221Z,95.28
2022-12-17T16:56:40.875Z,68.90
2022-12-17T16:59:08.464Z,97.38
2022-12-17T17:01:36.032Z,80.68
2022-12-17T17:04:04.441Z,87.95
2022-12-17T17:06:33.762Z,87.53
2022-12-17T17:09:04.182Z,80.05
2022-12-17T17:11:31.578Z,79.93
2022-12-17T17:13:58.786Z,80.82
2022-12-17T17:16:26.101Z,75.93
2022-12-17T17:18:53.424Z,77.88
2022-12-17T17:21:20.624Z,75.60
2022-12-17T17:23:48.589Z,77.03
2022-12-17T17:26:16.056Z,75.68
2022-12-17T17:28:44.951Z,78.30
2022-12-17T17:31:13.232Z,71.63
2022-12-17T17:33:46.621Z,69.32
2022-12-17T17:36:14.587Z,69.40
2022-12-17T17:38:41.876Z,65.78
2022-12-17T17:41:10.869Z,63.63
2022-12-17T17:43:38.134Z,67.40
2022-12-17T17:46:06.273Z,72.10
2022-12-17T17:48:33.943Z,64.35
2022-12-17T17:51:02.760Z,64.10
2022-12-17T17:53:30.016Z,60.38
2022-12-17T17:56:03.570Z,60.60
2022-12-17T17:58:30.800Z,60.95
2022-12-17T18:00:58.022Z,64.57
2022-12-17T18:03:25.365Z,67.15
2022-12-17T18:05:52.698Z,64.40
2022-12-17T18:08:19.886Z,71.97
2022-12-17T18:10:59.840Z,66.40
2022-12-17T18:13:45.866Z,76.43
2022-12-17T18:16:13.283Z,80.07
2022-12-17T18:18:40.788Z,76.68
2022-12-17T18:21:11.150Z,84.28
2022-12-17T18:23:38.491Z,77.70
2022-12-17T18:26:16.397Z,71.75
2022-12-17T18:28:44.008Z,77.63
2022-12-17T18:31:19.442Z,80.07
2022-12-17T18:33:48.750Z,76.82
2022-12-17T18:36:18.387Z,82.38
2022-12-17T18:38:45.781Z,87.07
2022-12-17T18:41:33.347Z,88.13
2022-12-17T18:44:02.010Z,81.35
2022-12-17T18:46:29.477Z,80.55
2022-12-17T18:49:00.884Z,84.88
2022-12-17T18:51:28.201Z,86.15
2022-12-17T18:53:59.483Z,85.38
2022-12-17T18:56:59.523Z,84.32
2022-12-17T18:59:16.886Z,88.55
2022-12-17T19:01:44.318Z,85.95
2022-12-17T19:04:13.948Z,88.53
2022-12-17T19:06:41.450Z,87.28
2022-12-17T19:09:14.269Z,90.80
2022-12-17T19:11:43.694Z,88.38
2022-12-17T19:14:11.067Z,84.63
2022-12-17T19:16:38.395Z,85.15
2022-12-17T19:19:05.640Z,84.75
2022-12-17T19:21:33.699Z,87.18
2022-12-17T19:24:05.156Z,90.20
2022-12-17T19:26:32.421Z,87.07
2022-12-17T19:28:59.933Z,86.47
2022-12-17T19:31:28.574Z,76.50
2022-12-17T19:33:56.594Z,83.38
2022-12-17T19:36:28.195Z,89.40
2022-12-17T19:38:57.510Z,88.95
2022-12-17T19:41:25.041Z,80.18
2022-12-17T19:43:56.656Z,88.97
2022-12-17T19:46:24.194Z,78.18
2022-12-17T19:48:52.139Z,86.45
2022-12-17T19:51:21.948Z,81.15
2022-12-17T19:53:49.310Z,82.75
2022-12-17T19:56:22.419Z,84.82
2022-12-17T19:58:52.421Z,75.57
2022-12-17T20:01:27.849Z,71.15
2022-12-17T20:03:55.414Z,80.63
2022-12-17T20:06:24.461Z,75.10
2022-12-17T20:08:51.718Z,76.13
2022-12-17T20:11:34.675Z,73.68
2022-12-17T20:14:06.585Z,73.82
2022-12-17T20:16:38.934Z,72.38
2022-12-17T20:19:07.785Z,78.78
2022-12-17T20:21:35.007Z,77.45
2022-12-17T20:24:02.204Z,77.03
2022-12-17T20:26:32.284Z,77.50
2022-12-17T20:28:59.577Z,83.07
2022-12-17T20:31:27.495Z,75.13
2022-12-17T20:33:54.890Z,79.40
2022-12-17T20:36:22.273Z,78.20
2022-12-17T20:38:49.536Z,82.72
2022-12-17T20:41:18.818Z,80.15
2022-12-17T20:43:46.169Z,73.35
2022-12-17T20:46:13.568Z,68.80
2022-12-17T20:48:41.822Z,70.47
2022-12-17T20:51:17.308Z,71.15
2022-12-17T20:53:44.862Z,71.88
2022-12-17T20:56:14.801Z,79.07
2022-12-17T20:58:42.501Z,84.20
2022-12-17T21:01:15.505Z,73.03
2022-12-17T21:03:42.995Z,82.75
2022-12-17T21:06:15.401Z,72.90
2022-12-17T21:08:49.375Z,65.82
2022-12-17T21:11:18.442Z,72.45
2022-12-17T21:13:46.002Z,70.53
2022-12-17T21:16:14.933Z,70.82
2022-12-17T21:18:42.458Z,70.40
2022-12-17T21:21:16.165Z,79.13
2022-12-17T21:23:43.481Z,70.05
2022-12-17T21:26:19.827Z,73.60
2022-12-17T21:28:48.058Z,68.72
2022-12-17T21:31:19.896Z,71.43
2022-12-17T21:33:47.812Z,66.15
2022-12-17T21:36:15.900Z,67.05
2022-12-17T21:38:43.359Z,71.88
2022-12-17T21:41:15.669Z,76.95
2022-12-17T21:43:42.925Z,75.07
2022-12-17T21:46:10.951Z,79.20
2022-12-17T21:48:41.846Z,69.90
2022-12-17T21:51:11.249Z,74.38
2022-12-17T21:53:42.259Z,73.35
2022-12-17T21:56:11.678Z,68.82
2022-12-17T21:58:39.744Z,72.72
2022-12-17T22:01:19.824Z,64.43
2022-12-17T22:03:54.120Z,57.85
2022-12-17T22:08:52.294Z,59.72
2022-12-17T22:11:24.852Z,68.45
2022-12-17T22:14:13.836Z,59.20
2022-12-17T22:16:47.099Z,63.10
2022-12-17T22:19:16.388Z,59.95
2022-12-17T22:21:45.016Z,59.45
2022-12-17T22:24:16.766Z,61.58
2022-12-17T22:26:44.249Z,64.55
2022-12-17T22:29:11.666Z,64.80
2022-12-17T22:31:57.444Z,62.90
2022-12-17T22:35:01.374Z,61.20
2022-12-17T22:40:31.856Z,59.78
2022-12-17T22:44:20.073Z,59.78
2022-12-17T22:44:43.671Z,60.20
2022-12-17T22:45:52.478Z,59.58
2022-12-17T22:48:22.078Z,61.70
2022-12-17T22:51:02.858Z,64.13
2022-12-17T22:53:31.587Z,62.80
2022-12-17T22:56:12.399Z,60.92
2022-12-17T22:58:44.147Z,60.30
2022-12-17T23:01:11.445Z,62.85
2022-12-17T23:03:39.082Z,69.03
2022-12-17T23:06:15.144Z,62.72
2022-12-17T23:08:42.806Z,65.25
2022-12-17T23:11:20.891Z,59.42
2022-12-17T23:13:49.524Z,61.28
2022-12-17T23:16:16.840Z,60.85
2022-12-17T23:18:44.885Z,68.85
2022-12-17T23:21:15.696Z,68.38
2022-12-17T23:23:43.337Z,63.95
2022-12-17T23:26:14.702Z,63.78
2022-12-17T23:28:42.037Z,63.05
2022-12-17T23:31:10.100Z,70.70
2022-12-17T23:33:37.754Z,66.28
2022-12-17T23:36:19.171Z,77.00
2022-12-17T23:38:47.293Z,74.43
2022-12-17T23:41:22.409Z,74.95
2022-12-17T23:43:49.841Z,63.03
2022-12-17T23:46:17.661Z,69.20
2022-12-17T23:48:45.960Z,73.95
2022-12-17T23:51:14.447Z,67.57
2022-12-17T23:53:42.244Z,67.38
2022-12-17T23:56:15.005Z,74.32
2022-12-17T23:58:42.726Z,70.55
